Latest Weather Observations for Barimunya

IDW60801

Issued at 9:03 pm WST Monday 18 June 2018 (issued every 10 minutes, with the page automatically refreshed every 10 minutes)

About weather observations | Map of weather stations | Latest weather observations for WA | Other Formats
Station Details ID: 505053 Name: BARIMUNYA Lat: -22.67 Lon: 119.16 Height: 629.17 m
Data from the previous 72 hours. | See also: Recent months for locations in Western Australia
Date/Time
WST
Temp
°C
App
Temp
°C
Dew
Point
°C
Rel
Hum
%
Delta-T
°C
Wind Press
QNH
hPa
Press
MSL
hPa
Rain since
9am
mm
Dir  Spd
km/h
Gust
km/h
Spd
kts
Gust
kts
18/09:00pm 19.1 17.2 6.6 44 6.4 NE 6 7 3 4 1021.1 1019.7 0.0
18/08:30pm 18.8 18.1 6.9 46 6.2 CALM 0 7 0 4 1020.8 1019.4 0.0
18/08:00pm 18.3 18.5 10.7 61 4.2 CALM 0 0 0 0 1020.8 1019.4 0.0
18/07:30pm 19.3 18.9 8.3 49 5.9 CALM 0 0 0 0 1020.3 1019.0 0.0
18/07:00pm 19.4 19.3 9.6 53 5.4 CALM 0 0 0 0 1020.2 1018.9 0.0
18/06:30pm 20.3 19.6 7.0 42 7.0 CALM 0 0 0 0 1020.1 1018.8 0.0
18/06:00pm 21.1 18.6 4.6 34 8.3 NE 7 7 4 4 1019.9 1018.5 0.0
18/05:30pm 21.7 20.1 4.3 32 8.8 NE 2 6 1 3 1019.6 1018.2 0.0
18/05:00pm 22.1 20.9 4.7 32 8.8 CALM 0 0 0 0 1019.3 1017.9 0.0
18/04:30pm 22.6 20.6 2.1 26 10.0 NE 2 7 1 4 1019.3 1017.9 0.0
18/04:00pm 23.1 19.7 2.0 25 10.2 NE 9 13 5 7 1018.9 1017.6 0.0
18/03:30pm 23.2 19.1 2.1 25 10.3 NE 13 19 7 10 1018.8 1017.5 0.0
18/03:00pm 22.9 19.5 1.9 25 10.2 NE 9 19 5 10 1018.8 1017.5 0.0
18/02:30pm 22.9 19.6 2.4 26 10.0 NE 9 15 5 8 1018.9 1017.6 0.0
18/02:00pm 22.5 18.0 2.1 26 9.9 NE 15 24 8 13 1018.8 1017.5 0.0
18/01:30pm 22.3 18.2 2.4 27 9.7 NE 13 20 7 11 1019.1 1017.7 0.0
18/01:00pm 21.5 17.4 2.2 28 9.3 NNE 13 19 7 10 1019.5 1018.1 0.0
18/12:30pm 21.3 16.7 1.6 27 9.4 NE 15 24 8 13 1020.0 1018.6 0.0
18/12:00pm 20.8 16.6 1.6 28 9.1 NNE 13 19 7 10 1020.8 1019.4 0.0
18/11:30am 19.9 15.2 0.9 28 8.8 NE 15 24 8 13 1021.4 1020.0 0.0
18/11:00am 19.2 14.5 0.8 29 8.5 NE 15 24 8 13 1022.0 1020.7 0.0
18/10:30am 18.9 13.2 0.5 29 8.4 NE 20 28 11 15 1022.2 1020.9 0.0
18/10:00am 18.4 12.9 0.5 30 8.1 NE 19 28 10 15 1022.7 1021.3 0.0
18/09:30am 18.3 12.8 0.4 30 8.1 NE 19 26 10 14 1022.7 1021.3 0.0
18/09:00am 17.8 12.0 0.0 30 8.0 NE 20 28 11 15 1022.7 1021.3 0.0
18/08:30am 17.1 11.2 -0.6 30 7.8 NE 20 28 11 15 1022.5 1021.1 0.0
18/08:00am 16.7 12.6 -0.5 31 7.5 NE 11 19 6 10 1022.5 1021.1 0.0
18/07:30am 12.7 11.6 4.9 59 3.7 CALM 0 0 0 0 1022.2 1020.9 0.0
18/07:00am 11.7 10.1 2.7 54 4.0 CALM 0 2 0 1 1022.2 1020.9 0.0
18/06:30am 11.7 8.9 1.9 51 4.3 ENE 6 7 3 4 1021.7 1020.4 0.0
18/06:00am 11.8 9.8 2.5 53 4.2 ESE 2 6 1 3 1021.4 1020.0 0.0
18/05:30am 10.7 9.4 4.0 63 3.1 CALM 0 0 0 0 1021.4 1020.0 0.0
18/05:00am 11.0 9.5 2.8 57 3.7 CALM 0 0 0 0 1021.6 1020.3 0.0
18/04:30am 12.0 10.4 2.5 52 4.3 CALM 0 0 0 0 1021.6 1020.3 0.0
18/04:00am 13.4 10.4 0.8 42 5.5 ESE 6 7 3 4 1021.5 1020.2 0.0
18/03:30am 15.1 10.6 -0.2 35 6.7 ESE 13 15 7 8 1021.3 1019.9 0.0
18/03:00am 15.9 12.0 -1.2 31 7.3 ENE 9 13 5 7 1021.2 1019.8 0.0
18/02:30am 17.4 11.6 -1.8 27 8.3 ENE 19 26 10 14 1020.8 1019.4 0.0
18/02:00am 14.5 12.9 2.7 45 5.4 CALM 0 0 0 0 1021.5 1020.2 0.0
18/01:30am 15.6 11.8 1.7 39 6.3 E 11 13 6 7 1021.8 1020.5 0.0
18/01:00am 15.8 12.6 2.9 42 6.0 E 9 11 5 6 1021.9 1020.6 0.0
18/12:30am 17.2 12.6 1.6 35 7.2 E 15 19 8 10 1021.7 1020.4 0.0
18/12:00am 18.1 13.1 1.6 33 7.6 ENE 17 22 9 12 1021.5 1020.2 0.0
 
Date/Time
WST
Temp
°C
App
Temp
°C
Dew
Point
°C
Rel
Hum
%
Delta-T
°C
Wind Press
QNH
hPa
Press
MSL
hPa
Rain since
9am
mm
Dir  Spd
km/h
Gust
km/h
Spd
kts
Gust
kts
17/11:30pm 18.2 13.6 1.7 33 7.7 ENE 15 19 8 10 1021.7 1020.4 0.0
17/11:00pm 18.1 14.0 2.0 34 7.5 E 13 19 7 10 1022.1 1020.8 0.0
17/10:30pm 17.8 13.3 2.2 35 7.3 E 15 17 8 9 1022.1 1020.8 0.0
17/10:00pm 17.5 13.9 3.0 38 6.9 E 11 13 6 7 1022.1 1020.8 0.0
17/09:30pm 18.0 14.0 2.7 36 7.3 E 13 15 7 8 1022.0 1020.7 0.0
17/09:00pm 18.5 14.9 2.8 35 7.5 E 11 13 6 7 1022.1 1020.8 0.0
17/08:30pm 18.7 15.5 2.9 35 7.6 E 9 11 5 6 1022.1 1020.8 0.0
17/08:00pm 18.8 15.6 3.0 35 7.6 E 9 11 5 6 1022.0 1020.7 0.0
17/07:30pm 18.8 15.6 3.0 35 7.6 E 9 11 5 6 1021.9 1020.6 0.0
17/07:00pm 18.5 15.8 3.6 37 7.2 E 7 9 4 5 1021.8 1020.5 0.0
17/06:30pm 19.3 16.3 3.9 36 7.6 ESE 9 9 5 5 1021.7 1020.4 0.0
17/06:00pm 20.0 16.5 3.3 33 8.1 E 11 11 6 6 1021.6 1020.3 0.0
17/05:30pm 20.9 17.3 3.2 31 8.7 E 11 13 6 7 1021.5 1020.2 0.0
17/05:00pm 22.9 18.7 1.9 25 10.1 ENE 13 17 7 9 1021.3 1019.9 0.0
17/04:30pm 23.7 19.5 1.4 23 10.8 ENE 13 19 7 10 1021.3 1019.9 0.0
17/04:00pm 24.1 19.8 1.1 22 11.0 E 13 17 7 9 1021.2 1019.8 0.0
17/03:30pm 24.2 19.5 1.2 22 11.1 ENE 15 20 8 11 1021.3 1019.9 0.0
17/03:00pm 24.1 19.3 0.4 21 11.2 ENE 15 24 8 13 1021.3 1019.9 0.0
17/02:30pm 24.1 18.9 0.4 21 11.3 NE 17 22 9 12 1021.3 1019.9 0.0
17/02:00pm 24.0 18.5 0.4 21 11.2 E 19 26 10 14 1021.2 1019.8 0.0
17/01:30pm 24.1 19.3 0.4 21 11.3 ENE 15 26 8 14 1021.4 1020.0 0.0
17/01:00pm 23.5 18.3 -0.1 21 11.0 ENE 17 28 9 15 1021.8 1020.5 0.0
17/12:30pm 22.9 17.7 0.1 22 10.7 ENE 17 24 9 13 1022.5 1021.1 0.0
17/12:00pm 22.0 16.9 0.5 24 10.0 ENE 17 24 9 13 1023.1 1021.8 0.0
17/11:30am 21.3 16.1 -0.1 24 9.9 E 17 22 9 12 1023.4 1022.1 0.0
17/11:00am 20.8 15.1 -1.1 23 9.8 E 19 28 10 15 1023.6 1022.3 0.0
17/10:30am 20.0 14.2 -1.2 24 9.5 E 19 26 10 14 1023.9 1022.6 0.0
17/10:00am 19.9 14.2 -0.7 25 9.2 E 19 28 10 15 1024.2 1022.8 0.0
17/09:30am 19.0 13.0 -1.4 25 9.0 E 20 30 11 16 1024.4 1023.1 0.0
17/09:00am 18.4 12.5 -2.0 25 8.8 E 19 28 10 15 1024.5 1023.2 0.0
17/08:30am 17.1 12.4 -1.5 28 8.0 ESE 13 20 7 11 1024.5 1023.2 0.0
17/08:00am 16.1 12.3 -1.0 31 7.4 ESE 9 13 5 7 1024.4 1023.1 0.0
17/07:30am 15.1 11.3 -1.0 33 6.9 ESE 9 11 5 6 1024.3 1023.0 0.0
17/07:00am 13.7 9.6 -0.3 38 6.0 ESE 11 15 6 8 1023.9 1022.6 0.0
17/06:30am 13.1 9.8 0.2 41 5.6 ESE 7 13 4 7 1023.6 1022.3 0.0
17/06:00am 14.3 9.7 -0.9 35 6.5 ESE 13 15 7 8 1023.5 1022.2 0.0
17/05:30am 14.5 10.7 -0.8 35 6.6 SE 9 13 5 7 1023.3 1022.0 0.0
17/05:00am 14.3 10.9 -0.5 36 6.3 SE 7 13 4 7 1023.2 1021.9 0.0
17/04:30am 14.9 11.1 -0.8 34 6.8 ESE 9 11 5 6 1023.1 1021.8 0.0
17/04:00am 15.6 11.0 -1.0 32 7.1 ESE 13 20 7 11 1023.0 1021.7 0.0
17/03:30am 15.5 11.3 -0.7 33 7.0 ESE 11 17 6 9 1023.0 1021.7 0.0
17/03:00am 15.6 11.8 -0.6 33 7.0 ESE 9 11 5 6 1023.1 1021.8 0.0
17/02:30am 16.5 11.9 -0.7 31 7.5 ESE 13 19 7 10 1023.2 1021.9 0.0
17/02:00am 16.9 11.6 -0.8 30 7.7 E 17 24 9 13 1023.1 1021.8 0.0
17/01:30am 17.4 11.6 -0.3 30 7.9 E 20 33 11 18 1023.2 1021.9 0.0
17/01:00am 17.3 12.2 0.5 32 7.6 E 17 28 9 15 1023.5 1022.2 0.0
17/12:30am 17.1 12.0 0.7 33 7.4 E 17 22 9 12 1023.6 1022.3 0.0
17/12:00am 17.1 12.4 1.1 34 7.3 E 15 22 8 12 1023.5 1022.2 0.0
 
Date/Time
WST
Temp
°C
App
Temp
°C
Dew
Point
°C
Rel
Hum
%
Delta-T
°C
Wind Press
QNH
hPa
Press
MSL
hPa
Rain since
9am
mm
Dir  Spd
km/h
Gust
km/h
Spd
kts
Gust
kts
16/11:30pm 16.8 12.6 1.7 36 7.0 ESE 13 17 7 9 1023.7 1022.4 0.0
16/11:00pm 16.4 12.7 2.4 39 6.5 ESE 11 15 6 8 1024.0 1022.7 0.0
16/10:30pm 16.9 13.2 2.1 37 6.9 ESE 11 15 6 8 1024.0 1022.7 0.0
16/10:00pm 16.6 13.0 3.0 40 6.4 ESE 11 13 6 7 1024.0 1022.7 0.0
16/09:30pm 15.8 14.1 3.9 45 5.7 ESE 2 7 1 4 1023.9 1022.6 0.0
16/09:00pm 16.0 13.4 4.4 46 5.6 ESE 7 9 4 5 1023.9 1022.6 0.0
16/08:30pm 16.9 14.4 4.6 44 6.0 ESE 7 9 4 5 1024.0 1022.7 0.0
16/08:00pm 17.5 14.7 5.1 44 6.1 ESE 9 11 5 6 1023.9 1022.6 0.0
16/07:30pm 17.2 14.1 5.5 46 5.8 E 11 13 6 7 1023.7 1022.4 0.0
16/07:00pm 18.4 15.9 4.6 40 6.8 E 7 9 4 5 1023.2 1021.9 0.0
16/06:30pm 18.5 15.5 4.3 39 7.0 E 9 9 5 5 1023.0 1021.7 0.0
16/06:00pm 19.2 16.7 4.6 38 7.2 E 7 7 4 4 1022.7 1021.3 0.0
16/05:30pm 20.3 17.7 4.4 35 7.9 E 7 9 4 5 1022.3 1021.0 0.0
16/05:00pm 22.4 19.4 4.0 30 9.2 E 9 13 5 7 1022.1 1020.8 0.0
16/04:30pm 23.2 18.8 2.7 26 10.1 E 15 20 8 11 1022.0 1020.7 0.0
16/04:00pm 23.4 18.6 2.8 26 10.2 E 17 20 9 11 1021.7 1020.4 0.0
16/03:30pm 23.5 19.1 2.9 26 10.2 ENE 15 20 8 11 1021.7 1020.4 0.0
16/03:00pm 23.9 19.5 2.7 25 10.5 ENE 15 24 8 13 1021.7 1020.4 0.0
16/02:30pm 23.5 18.8 2.9 26 10.2 ENE 17 24 9 13 1021.8 1020.5 0.0
16/02:00pm 22.8 17.5 1.8 25 10.1 ENE 19 28 10 15 1021.9 1020.6 0.0
16/01:30pm 22.6 17.1 1.6 25 10.1 ENE 20 28 11 15 1022.2 1020.9 0.0
16/01:00pm 21.7 16.4 1.9 27 9.5 ENE 19 28 10 15 1022.8 1021.4 0.0
16/12:30pm 20.9 15.4 1.7 28 9.1 ENE 20 30 11 16 1023.3 1022.0 0.0
16/12:00pm 19.8 14.1 0.8 28 8.8 E 20 28 11 15 1023.8 1022.5 0.0
16/11:30am 19.4 13.8 0.9 29 8.6 E 20 32 11 17 1024.3 1023.0 0.0
16/11:00am 18.5 12.8 0.6 30 8.1 E 20 30 11 16 1024.7 1023.4 0.0
16/10:30am 17.3 10.8 0.0 31 7.7 E 24 32 13 17 1024.9 1023.6 0.0
16/10:00am 16.5 11.7 0.2 33 7.2 ESE 15 28 8 15 1025.3 1024.0 0.0
16/09:30am 15.8 9.5 -0.8 32 7.2 ESE 22 32 12 17 1025.3 1024.0 0.0
16/09:00am 15.4 8.7 -0.8 33 7.0 ESE 24 35 13 19 1025.2 1023.9 0.0
16/08:30am 14.5 7.8 -1.2 34 6.7 ESE 24 35 13 19 1025.0 1023.7 0.0
16/08:00am 13.8 8.0 -1.4 35 6.4 ESE 19 32 10 17 1024.9 1023.6 0.0
16/07:30am 12.9 6.6 -1.1 38 5.9 ESE 22 35 12 19 1024.6 1023.3 0.0
16/07:00am 12.4 5.3 -1.1 39 5.6 ESE 26 37 14 20 1024.4 1023.1 0.0
16/06:30am 12.5 5.4 -1.4 38 5.8 ESE 26 35 14 19 1024.2 1022.8 0.0
16/06:00am 12.8 6.1 -1.1 38 5.8 ESE 24 35 13 19 1023.9 1022.6 0.0
16/05:30am 13.0 5.9 -1.0 38 5.9 ESE 26 33 14 18 1023.6 1022.3 0.0
16/05:00am 13.4 6.3 -1.0 37 6.1 ESE 26 32 14 17 1023.6 1022.3 0.0
16/04:30am 13.6 7.0 -0.4 38 6.0 ESE 24 32 13 17 1023.5 1022.2 0.0
16/04:00am 13.8 7.9 -0.6 37 6.1 ESE 20 30 11 16 1023.6 1022.3 0.0
16/03:30am 13.8 7.6 -0.6 37 6.2 SE 22 28 12 15 1023.4 1022.1 0.0
16/03:00am 13.8 7.6 -0.3 38 6.0 ESE 22 26 12 14 1023.4 1022.1 0.0
16/02:30am 13.9 8.7 -0.2 38 6.1 ESE 17 24 9 13 1023.5 1022.2 0.0
16/02:00am 13.7 10.0 0.0 39 5.9 E 9 15 5 8 1023.9 1022.6 0.0
16/01:30am 14.0 9.2 0.3 39 6.0 ESE 15 20 8 11 1023.8 1022.5 0.0
16/01:00am 13.3 9.3 0.3 41 5.6 E 11 15 6 8 1024.0 1022.7 0.0
16/12:30am 13.1 9.5 0.5 42 5.5 E 9 11 5 6 1024.0 1022.7 0.0
16/12:00am 13.8 9.4 0.5 40 5.8 ESE 13 17 7 9 1024.2 1022.8 0.0
 
Date/Time
WST
Temp
°C
App
Temp
°C
Dew
Point
°C
Rel
Hum
%
Delta-T
°C
Wind Press
QNH
hPa
Press
MSL
hPa
Rain since
9am
mm
Dir  Spd
km/h
Gust
km/h
Spd
kts
Gust
kts
15/11:30pm 14.1 9.7 0.4 39 6.0 ESE 13 19 7 10 1024.3 1023.0 0.0
15/11:00pm 14.1 9.8 0.7 40 5.9 E 13 17 7 9 1024.5 1023.2 0.0
15/10:30pm 14.9 9.7 0.4 37 6.4 ESE 17 20 9 11 1024.5 1023.2 0.0
15/10:00pm 14.8 9.7 0.6 38 6.3 ESE 17 20 9 11 1024.4 1023.1 0.0
15/09:30pm 14.6 9.9 0.8 39 6.1 ESE 15 19 8 10 1024.5 1023.2 0.0

Other Formats:

Comma delimited format used in spreadsheet applications
http://www.bom.gov.au/fwo/IDW60801/IDW60801.99313.axf

JavaScript Object Notation format (JSON) in row-major order
http://www.bom.gov.au/fwo/IDW60801/IDW60801.99313.json